Terminal Aerodrome Forecast
Issued by NWS Tampa Bay Area, FL

Home | Current Version | Previous Version | Text Only | Print | Product List | Glossary On
Versions: 1 2 3 4 5 6 7 8 9 10 11 12 13 14 15 16 17 18 19
000
FTUS42 KTBW 310539
TAFSRQ
TAF
KSRQ 310539Z 3106/0106 VRB04KT P6SM FEW030 BKN250
     FM310900 19005KT P6SM VCTS SCT030CB BKN250
     FM311500 22011KT P6SM VCTS SCT030CB BKN250
     FM010000 21007KT P6SM VCTS SCT030CB BKN250=

USA.gov is the U.S. government's official web portal to all federal, state and local government web resources and services.